Peshawbestown, Michigan
Current Conditions -  °F | °C
As of 5:53 AM on Thursday 23 Oct 2014 (Local Time) from KTVC Reporting Station
Clear Clear  
Wind Chill: 31°   Ceiling: Unl
Heat Index: 31°   Visibility: 9mi
Dew Point: 29°   Wind: 3mph
Humidity: 92%   Direction: 200°SSW
Pressure: 30.23"   Gusts: NA
Location:  44.9784°N, 85.6488°W
Report Text: KTVC 230953Z 20003KT 9SM CLR M01/M02 A3023 RMK AO2 SLP241 I1001 T10061017 $
Loading
Personal Weather Stations






























Interactive Weather Map
Tropical Storm Tracking
New forecast layout! Learn more

10-Day Weather Forecast

Advertisements
Track Severe Weather on mobile